createdAt,value
2023-02-12T00:01:27.155Z,4.15
2023-02-12T00:06:22.735Z,5.82
2023-02-12T00:08:53.049Z,7.10
2023-02-12T00:11:24.707Z,4.40
2023-02-12T00:13:53.483Z,4.45
2023-02-12T00:16:24.348Z,5.63
2023-02-12T00:18:56.707Z,3.22
2023-02-12T00:21:25.368Z,3.83
2023-02-12T00:23:52.847Z,5.80
2023-02-12T00:26:21.818Z,6.30
2023-02-12T00:28:50.920Z,4.82
2023-02-12T00:31:21.952Z,4.90
2023-02-12T00:33:50.169Z,6.93
2023-02-12T00:36:20.775Z,3.23
2023-02-12T00:38:49.574Z,5.57
2023-02-12T00:41:17.229Z,6.03
2023-02-12T00:43:45.051Z,4.88
2023-02-12T00:46:13.407Z,5.35
2023-02-12T00:48:41.137Z,8.13
2023-02-12T00:51:09.394Z,3.63
2023-02-12T00:53:37.054Z,5.30
2023-02-12T00:56:05.204Z,5.43
2023-02-12T00:58:32.955Z,3.10
2023-02-12T01:01:00.995Z,4.97
2023-02-12T01:03:28.780Z,5.57
2023-02-12T01:05:57.748Z,6.28
2023-02-12T01:08:26.228Z,5.72
2023-02-12T01:10:59.559Z,4.88
2023-02-12T01:13:28.375Z,4.20
2023-02-12T01:16:18.559Z,4.72
2023-02-12T01:18:47.671Z,7.30
2023-02-12T01:23:58.085Z,5.13
2023-02-12T01:28:59.002Z,5.18
2023-02-12T01:31:29.100Z,4.72
2023-02-12T01:33:58.919Z,3.83
2023-02-12T01:36:28.358Z,6.15
2023-02-12T01:38:58.017Z,3.92
2023-02-12T01:41:29.552Z,5.20
2023-02-12T01:44:05.931Z,3.92
2023-02-12T01:46:33.649Z,3.42
2023-02-12T01:49:02.997Z,5.78
2023-02-12T01:51:31.961Z,5.63
2023-02-12T01:54:03.109Z,4.13
2023-02-12T01:56:31.295Z,5.15
2023-02-12T01:58:59.418Z,6.70
2023-02-12T02:01:29.991Z,4.47
2023-02-12T02:04:02.743Z,6.47
2023-02-12T02:06:38.372Z,4.65
2023-02-12T02:09:06.438Z,7.93
2023-02-12T02:11:52.345Z,10.02
2023-02-12T02:14:35.242Z,9.45
2023-02-12T02:17:30.168Z,8.50
2023-02-12T02:20:01.664Z,6.20
2023-02-12T02:22:53.095Z,7.90
2023-02-12T02:26:07.895Z,8.15
2023-02-12T02:28:53.988Z,8.80
2023-02-12T02:31:24.385Z,7.93
2023-02-12T02:34:09.473Z,6.90
2023-02-12T02:37:00.934Z,7.55
2023-02-12T02:39:42.657Z,9.32
2023-02-12T02:42:27.989Z,8.77
2023-02-12T02:45:06.351Z,5.53
2023-02-12T02:47:41.469Z,6.80
2023-02-12T02:50:17.328Z,6.10
2023-02-12T02:52:54.061Z,7.80
2023-02-12T02:55:25.851Z,7.40
2023-02-12T02:57:58.126Z,5.80
2023-02-12T03:00:37.489Z,9.45
2023-02-12T03:03:13.666Z,6.90
2023-02-12T03:05:48.473Z,4.53
2023-02-12T03:08:25.242Z,5.68
2023-02-12T03:11:11.411Z,8.30
2023-02-12T03:14:29.215Z,5.50
2023-02-12T03:17:04.406Z,4.38
2023-02-12T03:19:37.354Z,6.22
2023-02-12T03:22:12.391Z,7.00
2023-02-12T03:24:45.351Z,5.95
2023-02-12T03:27:34.068Z,6.25
2023-02-12T03:30:04.064Z,6.22
2023-02-12T03:33:01.167Z,8.90
2023-02-12T03:38:47.769Z,5.10
2023-02-12T03:41:20.772Z,8.35
2023-02-12T03:44:01.859Z,7.97
2023-02-12T03:46:47.504Z,6.80
2023-02-12T03:49:24.530Z,5.47
2023-02-12T03:51:51.812Z,10.55
2023-02-12T03:54:20.117Z,5.38
2023-02-12T03:56:52.523Z,7.05
2023-02-12T03:59:21.368Z,4.57
2023-02-12T04:01:49.542Z,6.07
2023-02-12T04:04:17.335Z,6.28
2023-02-12T04:06:45.831Z,6.85
2023-02-12T04:09:13.907Z,6.75
2023-02-12T04:11:50.160Z,7.40
2023-02-12T04:14:24.730Z,7.70
2023-02-12T04:16:57.918Z,4.80
2023-02-12T04:19:33.581Z,6.88
2023-02-12T04:22:06.634Z,6.25
2023-02-12T04:24:36.536Z,3.95
2023-02-12T04:27:14.000Z,4.85
2023-02-12T04:29:48.356Z,6.85
2023-02-12T04:32:30.652Z,9.30
2023-02-12T04:35:03.711Z,5.88
2023-02-12T04:37:39.201Z,5.65
2023-02-12T04:40:08.320Z,7.15
2023-02-12T04:45:02.530Z,6.55
2023-02-12T04:47:30.706Z,6.72
2023-02-12T04:49:58.147Z,5.35
2023-02-12T04:52:25.537Z,10.93
2023-02-12T04:54:53.069Z,7.70
2023-02-12T04:57:20.252Z,9.02
2023-02-12T04:59:47.429Z,5.30
2023-02-12T05:02:14.536Z,8.75
2023-02-12T05:04:41.673Z,7.88
2023-02-12T05:07:08.857Z,10.27
2023-02-12T05:09:36.398Z,6.82
2023-02-12T05:12:03.908Z,7.05
2023-02-12T05:14:31.250Z,6.90
2023-02-12T05:16:58.380Z,7.75
2023-02-12T05:19:25.543Z,8.35
2023-02-12T05:21:52.699Z,7.80
2023-02-12T05:24:19.814Z,6.15
2023-02-12T05:26:48.368Z,7.15
2023-02-12T05:29:16.435Z,6.35
2023-02-12T05:31:43.835Z,11.85
2023-02-12T05:34:11.983Z,11.35
2023-02-12T05:36:39.325Z,12.97
2023-02-12T05:39:07.718Z,6.40
2023-02-12T05:41:35.758Z,8.60
2023-02-12T05:44:03.836Z,8.02
2023-02-12T05:46:31.237Z,9.03
2023-02-12T05:48:58.631Z,12.63
2023-02-12T05:51:27.236Z,12.38
2023-02-12T05:53:58.868Z,9.40
2023-02-12T05:56:27.720Z,7.40
2023-02-12T06:01:24.203Z,5.63
2023-02-12T06:03:51.809Z,5.95
2023-02-12T06:06:19.187Z,8.93
2023-02-12T06:08:49.813Z,11.48
2023-02-12T06:11:17.861Z,9.10
2023-02-12T06:13:45.046Z,7.00
2023-02-12T06:16:27.932Z,7.95
2023-02-12T06:18:56.023Z,9.15
2023-02-12T06:21:27.397Z,11.57
2023-02-12T06:23:54.879Z,9.40
2023-02-12T06:26:22.726Z,10.90
2023-02-12T06:28:51.041Z,9.73
2023-02-12T06:31:18.478Z,9.38
2023-02-12T06:33:45.841Z,9.98
2023-02-12T06:36:13.339Z,11.43
2023-02-12T06:38:40.892Z,9.45
2023-02-12T06:41:08.051Z,9.95
2023-02-12T06:43:35.206Z,8.15
2023-02-12T06:46:02.901Z,9.88
2023-02-12T06:48:31.014Z,7.95
2023-02-12T06:51:05.606Z,8.30
2023-02-12T06:53:33.427Z,9.25
2023-02-12T06:56:01.983Z,9.68
2023-02-12T07:00:57.227Z,13.05
2023-02-12T07:03:25.115Z,14.57
2023-02-12T07:05:52.676Z,11.65
2023-02-12T07:08:20.786Z,17.65
2023-02-12T07:10:48.688Z,13.45
2023-02-12T07:13:16.133Z,14.18
2023-02-12T07:15:43.375Z,10.25
2023-02-12T07:18:10.701Z,9.82
2023-02-12T07:20:37.873Z,11.05
2023-02-12T07:23:05.053Z,10.95
2023-02-12T07:25:32.298Z,12.20
2023-02-12T07:28:00.239Z,13.68
2023-02-12T07:30:27.395Z,9.02
2023-02-12T07:32:54.961Z,12.60
2023-02-12T07:35:22.770Z,14.13
2023-02-12T07:37:50.204Z,19.15
2023-02-12T07:40:18.072Z,20.63
2023-02-12T07:42:45.233Z,17.05
2023-02-12T07:45:12.425Z,11.35
2023-02-12T07:47:40.675Z,11.77
2023-02-12T07:50:08.576Z,11.02
2023-02-12T07:52:36.024Z,10.10
2023-02-12T07:55:03.502Z,10.65
2023-02-12T07:57:30.891Z,8.73
2023-02-12T07:59:58.164Z,12.07
2023-02-12T08:02:25.897Z,7.75
2023-02-12T08:04:57.036Z,17.85
2023-02-12T08:07:24.323Z,9.60
2023-02-12T08:09:51.848Z,11.35
2023-02-12T08:12:19.304Z,10.15
2023-02-12T08:14:46.458Z,8.55
2023-02-12T08:17:13.594Z,14.75
2023-02-12T08:19:41.255Z,9.77
2023-02-12T08:22:08.766Z,8.32
2023-02-12T08:24:36.132Z,8.00
2023-02-12T08:27:04.997Z,11.80
2023-02-12T08:29:32.222Z,8.55
2023-02-12T08:32:03.430Z,8.55
2023-02-12T08:34:31.696Z,10.40
2023-02-12T08:36:59.496Z,7.35
2023-02-12T08:39:29.659Z,13.23
2023-02-12T08:41:57.923Z,7.75
2023-02-12T08:44:25.237Z,9.13
2023-02-12T08:46:53.001Z,8.63
2023-02-12T08:49:21.442Z,10.90
2023-02-12T08:51:49.848Z,7.50
2023-02-12T08:54:18.891Z,9.95
2023-02-12T08:59:13.682Z,10.80
2023-02-12T09:01:44.296Z,7.77
2023-02-12T09:04:17.806Z,10.82
2023-02-12T09:06:45.505Z,11.20
2023-02-12T09:09:12.941Z,5.00
2023-02-12T09:11:40.672Z,10.13
2023-02-12T09:14:10.531Z,13.80
2023-02-12T09:16:38.193Z,8.65
2023-02-12T09:19:05.461Z,8.02
2023-02-12T09:21:33.141Z,11.02
2023-02-12T09:24:01.152Z,8.10
2023-02-12T09:26:28.266Z,8.90
2023-02-12T09:28:55.430Z,9.32
2023-02-12T09:31:26.615Z,13.15
2023-02-12T09:34:04.761Z,9.32
2023-02-12T09:36:32.651Z,10.05
2023-02-12T09:39:00.642Z,10.27
2023-02-12T09:41:47.135Z,12.38
2023-02-12T09:44:35.615Z,8.50
2023-02-12T09:47:06.969Z,8.18
2023-02-12T09:49:37.190Z,7.63
2023-02-12T09:52:05.936Z,8.73
2023-02-12T09:54:42.248Z,5.65
2023-02-12T09:57:31.344Z,7.20
2023-02-12T10:00:04.354Z,7.75
2023-02-12T10:02:34.938Z,8.95
2023-02-12T10:05:02.747Z,6.07
2023-02-12T10:07:45.349Z,10.10
2023-02-12T10:10:12.448Z,7.57
2023-02-12T10:12:41.316Z,9.73
2023-02-12T10:15:14.418Z,6.20
2023-02-12T10:17:43.803Z,5.57
2023-02-12T10:20:29.522Z,7.63
2023-02-12T10:22:59.701Z,10.38
2023-02-12T10:25:35.847Z,10.40
2023-02-12T10:28:08.804Z,11.60
2023-02-12T10:30:45.348Z,8.23
2023-02-12T10:33:26.766Z,9.70
2023-02-12T10:36:03.971Z,9.43
2023-02-12T10:38:35.039Z,9.85
2023-02-12T10:41:02.869Z,5.72
2023-02-12T10:43:30.605Z,10.65
2023-02-12T10:45:58.345Z,11.32
2023-02-12T10:48:34.929Z,9.10
2023-02-12T10:51:09.137Z,11.63
2023-02-12T10:53:38.099Z,6.32
2023-02-12T10:58:32.609Z,6.78
2023-02-12T11:01:00.549Z,5.88
2023-02-12T11:03:30.112Z,7.03
2023-02-12T11:06:11.189Z,7.88
2023-02-12T11:08:39.619Z,6.05
2023-02-12T11:11:11.610Z,8.07
2023-02-12T11:13:45.855Z,6.82
2023-02-12T11:16:13.400Z,6.38
2023-02-12T11:18:41.820Z,9.15
2023-02-12T11:21:12.782Z,9.95
2023-02-12T11:23:41.520Z,9.15
2023-02-12T11:26:17.970Z,8.00
2023-02-12T11:28:54.841Z,5.93
2023-02-12T11:31:24.375Z,6.95
2023-02-12T11:34:04.123Z,7.43
2023-02-12T11:36:33.084Z,8.20
2023-02-12T11:41:36.280Z,7.75
2023-02-12T11:44:12.377Z,9.00
2023-02-12T11:46:40.481Z,6.13
2023-02-12T11:49:09.406Z,6.50
2023-02-12T11:51:37.899Z,8.57
2023-02-12T11:54:06.555Z,7.18
2023-02-12T11:56:40.934Z,11.82
2023-02-12T11:59:34.545Z,6.72
2023-02-12T12:02:20.667Z,8.35
2023-02-12T12:04:49.953Z,8.05
2023-02-12T12:07:29.967Z,6.57
2023-02-12T12:10:12.560Z,7.85
2023-02-12T12:12:49.475Z,10.00
2023-02-12T12:15:41.369Z,6.32
2023-02-12T12:18:50.454Z,7.00
2023-02-12T12:21:36.494Z,6.88
2023-02-12T12:24:28.704Z,9.98
2023-02-12T12:27:00.961Z,9.30
2023-02-12T12:29:46.235Z,6.28
2023-02-12T12:32:16.131Z,8.23
2023-02-12T12:34:43.358Z,10.15
2023-02-12T12:37:16.686Z,7.43
2023-02-12T12:39:55.933Z,7.57
2023-02-12T12:44:53.028Z,6.93
2023-02-12T12:47:32.499Z,9.85
2023-02-12T12:50:07.815Z,10.85
2023-02-12T12:52:47.605Z,11.77
2023-02-12T12:55:21.446Z,9.18
2023-02-12T12:58:01.499Z,12.45
2023-02-12T13:00:41.654Z,9.25
2023-02-12T13:03:48.123Z,11.23
2023-02-12T13:06:34.450Z,8.40
2023-02-12T13:09:04.873Z,10.98
2023-02-12T13:11:33.462Z,9.38
2023-02-12T13:14:19.174Z,8.90
2023-02-12T13:16:48.413Z,8.70
2023-02-12T13:21:59.226Z,11.45
2023-02-12T13:24:33.067Z,8.25
2023-02-12T13:27:08.516Z,11.43
2023-02-12T13:29:39.122Z,10.77
2023-02-12T13:32:06.720Z,10.05
2023-02-12T13:34:35.752Z,9.18
2023-02-12T13:37:04.337Z,6.88
2023-02-12T13:39:34.302Z,6.88
2023-02-12T13:42:08.306Z,8.57
2023-02-12T13:44:40.919Z,8.15
2023-02-12T13:47:21.202Z,12.85
2023-02-12T13:49:48.637Z,7.03
2023-02-12T13:52:19.353Z,9.82
2023-02-12T13:54:53.342Z,10.35
2023-02-12T13:57:20.923Z,9.93
2023-02-12T13:59:49.180Z,10.65
2023-02-12T14:02:22.800Z,12.15
2023-02-12T14:04:53.278Z,9.75
2023-02-12T14:07:21.579Z,6.93
2023-02-12T14:09:52.021Z,8.70
2023-02-12T14:12:25.366Z,10.80
2023-02-12T14:14:54.788Z,12.23
2023-02-12T14:17:28.183Z,10.88
2023-02-12T14:20:04.983Z,12.38
2023-02-12T14:22:32.691Z,10.50
2023-02-12T14:25:22.851Z,10.25
2023-02-12T14:27:52.114Z,12.77
2023-02-12T14:30:19.431Z,12.68
2023-02-12T14:32:57.868Z,12.20
2023-02-12T14:35:36.160Z,11.27
2023-02-12T14:38:10.254Z,6.80
2023-02-12T14:40:47.919Z,13.57
2023-02-12T14:43:54.761Z,12.38
2023-02-12T14:46:22.506Z,13.30
2023-02-12T14:48:56.146Z,9.95
2023-02-12T14:51:44.982Z,12.13
2023-02-12T14:54:18.644Z,17.42
2023-02-12T14:56:47.676Z,11.00
2023-02-12T14:59:17.838Z,13.45
2023-02-12T15:01:45.855Z,18.65
2023-02-12T15:04:33.811Z,14.73
2023-02-12T15:07:08.193Z,11.43
2023-02-12T15:09:53.985Z,18.38
2023-02-12T15:12:32.734Z,18.55
2023-02-12T15:15:12.317Z,14.82
2023-02-12T15:17:40.997Z,14.23
2023-02-12T15:20:17.281Z,15.45
2023-02-12T15:22:44.420Z,13.20
2023-02-12T15:25:16.449Z,12.90
2023-02-12T15:27:44.500Z,15.88
2023-02-12T15:30:25.886Z,15.87
2023-02-12T15:32:58.240Z,17.55
2023-02-12T15:35:30.133Z,20.65
2023-02-12T15:38:00.801Z,14.85
2023-02-12T15:40:29.093Z,17.85
2023-02-12T15:42:58.948Z,13.40
2023-02-12T15:45:27.632Z,17.02
2023-02-12T15:47:57.829Z,13.50
2023-02-12T15:50:26.455Z,14.55
2023-02-12T15:52:56.283Z,15.82
2023-02-12T15:57:53.882Z,18.42
2023-02-12T16:02:51.825Z,16.85
2023-02-12T16:05:19.832Z,14.88
2023-02-12T16:07:47.881Z,14.95
2023-02-12T16:10:19.375Z,23.15
2023-02-12T16:12:48.128Z,21.73
2023-02-12T16:15:26.220Z,19.20
2023-02-12T16:17:53.767Z,18.75
2023-02-12T16:20:25.633Z,22.90
2023-02-12T16:22:53.208Z,20.27
2023-02-12T16:25:20.289Z,17.40
2023-02-12T16:27:53.814Z,20.05
2023-02-12T16:30:24.063Z,22.17
2023-02-12T16:32:51.810Z,23.35
2023-02-12T16:35:19.106Z,18.80
2023-02-12T16:37:50.775Z,28.38
2023-02-12T16:40:21.452Z,18.52
2023-02-12T16:42:48.809Z,19.08
2023-02-12T16:45:22.073Z,17.45
2023-02-12T16:47:51.020Z,23.73
2023-02-12T16:50:18.735Z,25.00
2023-02-12T16:52:46.457Z,23.50
2023-02-12T16:55:17.065Z,21.38
2023-02-12T16:57:44.895Z,26.38
2023-02-12T17:00:16.266Z,25.57
2023-02-12T17:02:44.781Z,25.60
2023-02-12T17:05:12.875Z,25.17
2023-02-12T17:07:40.537Z,27.45
2023-02-12T17:10:11.862Z,31.42
2023-02-12T17:12:48.136Z,22.83
2023-02-12T17:15:19.648Z,30.27
2023-02-12T17:17:47.383Z,27.98
2023-02-12T17:20:15.121Z,23.65
2023-02-12T17:22:48.829Z,22.48
2023-02-12T17:25:16.064Z,27.50
2023-02-12T17:27:43.421Z,32.72
2023-02-12T17:30:21.736Z,25.27
2023-02-12T17:32:51.301Z,21.20
2023-02-12T17:35:18.935Z,30.02
2023-02-12T17:37:48.055Z,23.08
2023-02-12T17:40:16.384Z,21.90
2023-02-12T17:42:44.100Z,20.33
2023-02-12T17:45:11.797Z,19.15
2023-02-12T17:47:41.779Z,27.65
2023-02-12T17:50:12.250Z,19.83
2023-02-12T17:52:39.949Z,26.95
2023-02-12T17:55:07.921Z,20.67
2023-02-12T17:57:35.414Z,26.52
2023-02-12T18:00:04.799Z,24.35
2023-02-12T18:04:59.383Z,27.90
2023-02-12T18:07:27.311Z,19.90
2023-02-12T18:09:54.977Z,25.27
2023-02-12T18:12:22.681Z,23.50
2023-02-12T18:14:50.141Z,25.20
2023-02-12T18:17:17.686Z,22.42
2023-02-12T18:19:45.415Z,25.38
2023-02-12T18:22:13.071Z,22.85
2023-02-12T18:24:44.003Z,22.13
2023-02-12T18:27:12.435Z,22.40
2023-02-12T18:29:40.275Z,28.25
2023-02-12T18:32:08.326Z,25.92
2023-02-12T18:34:36.146Z,23.73
2023-02-12T18:37:03.546Z,25.60
2023-02-12T18:39:31.274Z,24.00
2023-02-12T18:41:58.795Z,21.23
2023-02-12T18:44:26.619Z,20.85
2023-02-12T18:46:54.364Z,18.60
2023-02-12T18:49:21.836Z,19.70
2023-02-12T18:51:49.591Z,19.08
2023-02-12T18:54:17.026Z,18.00
2023-02-12T18:56:45.270Z,22.25
2023-02-12T18:59:13.720Z,13.00
2023-02-12T19:01:41.748Z,18.90
2023-02-12T19:04:14.104Z,20.88
2023-02-12T19:06:44.382Z,23.13
2023-02-12T19:09:13.411Z,22.25
2023-02-12T19:11:40.850Z,19.83
2023-02-12T19:14:08.419Z,22.08
2023-02-12T19:16:35.715Z,24.38
2023-02-12T19:19:03.674Z,27.80
2023-02-12T19:21:31.240Z,19.10
2023-02-12T19:23:59.678Z,21.83
2023-02-12T19:26:30.779Z,18.70
2023-02-12T19:28:58.506Z,18.05
2023-02-12T19:31:30.469Z,16.80
2023-02-12T19:33:59.354Z,14.23
2023-02-12T19:38:54.745Z,12.73
2023-02-12T19:41:23.835Z,12.40
2023-02-12T19:43:55.930Z,19.33
2023-02-12T19:46:24.419Z,19.65
2023-02-12T19:48:54.740Z,20.52
2023-02-12T19:51:22.809Z,20.67
2023-02-12T19:53:50.340Z,22.70
2023-02-12T19:56:18.479Z,18.65
2023-02-12T19:58:46.122Z,15.38
2023-02-12T20:01:16.255Z,18.63
2023-02-12T20:03:44.553Z,14.43
2023-02-12T20:06:16.489Z,13.93
2023-02-12T20:08:44.392Z,22.15
2023-02-12T20:11:13.969Z,15.02
2023-02-12T20:13:42.270Z,18.10
2023-02-12T20:16:11.233Z,19.95
2023-02-12T20:18:38.947Z,12.60
2023-02-12T20:21:10.788Z,20.87
2023-02-12T20:23:38.856Z,20.50
2023-02-12T20:26:07.764Z,18.77
2023-02-12T20:28:36.507Z,16.92
2023-02-12T20:31:17.301Z,16.83
2023-02-12T20:33:44.874Z,13.77
2023-02-12T20:36:13.100Z,14.52
2023-02-12T20:38:41.782Z,16.65
2023-02-12T20:41:09.855Z,16.42
2023-02-12T20:43:37.811Z,17.52
2023-02-12T20:46:06.745Z,18.27
2023-02-12T20:48:34.342Z,16.90
2023-02-12T20:51:05.842Z,16.60
2023-02-12T20:53:33.660Z,14.15
2023-02-12T20:56:04.524Z,19.02
2023-02-12T20:58:32.242Z,15.93
2023-02-12T21:01:03.716Z,17.73
2023-02-12T21:03:31.214Z,17.80
2023-02-12T21:05:58.985Z,17.83
2023-02-12T21:08:26.909Z,11.83
2023-02-12T21:11:04.292Z,18.02
2023-02-12T21:13:32.244Z,14.57
2023-02-12T21:16:10.039Z,13.55
2023-02-12T21:18:37.984Z,21.58
2023-02-12T21:21:06.483Z,16.40
2023-02-12T21:23:34.572Z,14.60
2023-02-12T21:26:12.795Z,20.73
2023-02-12T21:28:40.377Z,18.30
2023-02-12T21:31:09.778Z,16.13
2023-02-12T21:33:38.093Z,18.95
2023-02-12T21:36:09.906Z,9.10
2023-02-12T21:38:38.263Z,12.48
2023-02-12T21:41:08.569Z,21.17
2023-02-12T21:43:36.478Z,16.27
2023-02-12T21:46:03.825Z,13.85
2023-02-12T21:48:31.346Z,12.93
2023-02-12T21:50:59.159Z,16.65
2023-02-12T21:53:27.533Z,16.65
2023-02-12T21:55:55.250Z,13.13
2023-02-12T21:58:23.160Z,13.90
2023-02-12T22:00:50.805Z,10.07
2023-02-12T22:03:19.536Z,11.32
2023-02-12T22:08:14.309Z,13.85
2023-02-12T22:10:41.542Z,12.02
2023-02-12T22:13:08.710Z,15.38
2023-02-12T22:15:36.411Z,10.73
2023-02-12T22:18:03.975Z,12.40
2023-02-12T22:20:31.447Z,11.02
2023-02-12T22:22:58.541Z,13.90
2023-02-12T22:25:27.710Z,10.43
2023-02-12T22:27:55.150Z,10.85
2023-02-12T22:30:22.705Z,11.55
2023-02-12T22:32:49.835Z,14.23
2023-02-12T22:35:16.948Z,14.90
2023-02-12T22:37:44.153Z,12.43
2023-02-12T22:40:11.747Z,9.75
2023-02-12T22:42:39.233Z,15.80
2023-02-12T22:45:06.786Z,11.02
2023-02-12T22:47:34.022Z,10.55
2023-02-12T22:50:01.284Z,12.73
2023-02-12T22:52:28.852Z,9.30
2023-02-12T22:54:55.984Z,9.38
2023-02-12T22:57:23.138Z,12.85
2023-02-12T22:59:50.344Z,11.93
2023-02-12T23:02:17.668Z,11.20
2023-02-12T23:04:44.831Z,10.90
2023-02-12T23:07:11.984Z,12.55
2023-02-12T23:09:39.352Z,10.20
2023-02-12T23:12:09.551Z,11.95
2023-02-12T23:14:36.794Z,10.38
2023-02-12T23:17:04.404Z,10.40
2023-02-12T23:19:31.675Z,11.27
2023-02-12T23:21:59.296Z,11.15
2023-02-12T23:24:26.379Z,8.40
2023-02-12T23:26:53.744Z,9.57
2023-02-12T23:29:21.129Z,7.68
2023-02-12T23:31:49.145Z,13.77
2023-02-12T23:34:16.475Z,10.98
2023-02-12T23:36:43.914Z,12.48
2023-02-12T23:39:12.260Z,12.10
2023-02-12T23:41:39.774Z,7.07
2023-02-12T23:44:07.157Z,9.85
2023-02-12T23:46:34.395Z,13.50
2023-02-12T23:49:01.634Z,10.77
2023-02-12T23:51:29.122Z,14.80
2023-02-12T23:53:56.673Z,8.73
2023-02-12T23:56:24.176Z,12.52
2023-02-12T23:58:51.538Z,11.25
